Time;durP1;ratioP1;P1;durP2;ratioP2;P2;SDS_P1;SDS_P2;PMS_P1;PMS_P2;Temp;Humidity;BMP_temperature;BMP_pressure;BME280_temperature;BME280_humidity;BME280_pressure;Samples;Min_cycle;Max_cycle;Signal;HPM_P1;HPM_P2
2022/06/14 00:00:55;;;;;;;4.87;2.47;;;11.90;99.90;;;;;;5055160;28;20178;-70
2022/06/14 00:03:31;;;;;;;3.70;2.50;;;11.90;99.90;;;;;;5055238;28;20170;-76
2022/06/14 00:05:58;;;;;;;4.97;2.70;;;11.90;99.90;;;;;;5054131;28;20959;-70
2022/06/14 00:08:26;;;;;;;4.50;3.77;;;12.00;99.90;;;;;;5053804;28;20592;-70
2022/06/14 00:10:53;;;;;;;7.83;2.90;;;11.90;99.90;;;;;;5051019;28;20421;-70
2022/06/14 00:13:19;;;;;;;3.30;2.00;;;11.90;99.90;;;;;;5053452;28;20512;-74
2022/06/14 00:15:45;;;;;;;7.63;2.90;;;11.90;99.90;;;;;;5054887;28;20376;-75
2022/06/14 00:18:12;;;;;;;3.83;2.30;;;11.90;99.90;;;;;;5050625;28;20415;-75
2022/06/14 00:20:38;;;;;;;5.37;2.37;;;11.90;99.90;;;;;;5041247;28;20392;-70
2022/06/14 00:23:04;;;;;;;3.20;3.00;;;12.00;99.90;;;;;;5024893;28;20393;-75
2022/06/14 00:25:37;;;;;;;5.70;2.60;;;12.00;99.90;;;;;;5041180;28;20783;-70
2022/06/14 00:28:04;;;;;;;9.67;3.00;;;12.00;99.90;;;;;;5050695;28;20720;-72
2022/06/14 00:30:30;;;;;;;7.37;3.93;;;12.00;99.90;;;;;;5036983;28;20431;-77
2022/06/14 00:32:56;;;;;;;4.63;2.17;;;12.00;99.90;;;;;;5036304;28;20392;-71
2022/06/14 00:35:22;;;;;;;4.77;2.80;;;12.00;99.90;;;;;;5054621;28;20166;-74
2022/06/14 00:37:48;;;;;;;9.13;2.10;;;12.00;99.90;;;;;;5053412;28;20384;-71
2022/06/14 00:40:18;;;;;;;7.03;2.40;;;11.90;99.90;;;;;;5035690;28;20249;-75
2022/06/14 00:42:44;;;;;;;4.63;2.57;;;11.80;99.90;;;;;;5041875;28;20399;-71
2022/06/14 00:45:12;;;;;;;4.07;2.23;;;11.80;99.90;;;;;;5046931;28;20478;-74
2022/06/14 00:47:43;;;;;;;7.20;2.97;;;11.70;99.90;;;;;;5024740;28;20903;-75
2022/06/14 00:50:17;;;;;;;6.93;2.43;;;11.70;99.90;;;;;;5044177;28;20937;-71
2022/06/14 00:52:48;;;;;;;6.10;2.50;;;11.70;99.90;;;;;;5045207;28;20889;-75
2022/06/14 00:55:20;;;;;;;4.37;2.70;;;11.70;99.90;;;;;;5053916;28;20423;-71
2022/06/14 00:58:04;;;;;;;9.30;3.30;;;11.80;99.90;;;;;;5050980;28;20506;-71
2022/06/14 01:00:33;;;;;;;6.70;2.20;;;11.90;99.90;;;;;;5034109;28;20406;-75
2022/06/14 01:03:05;;;;;;;2.77;2.23;;;11.80;99.90;;;;;;5034826;28;20449;-71
2022/06/14 01:08:23;;;;;;;3.50;2.17;;;11.90;99.90;;;;;;5047952;28;20419;-75
2022/06/14 01:10:49;;;;;;;7.77;3.00;;;11.90;99.90;;;;;;5047921;28;20937;-72
2022/06/14 01:13:17;;;;;;;5.23;3.23;;;12.00;99.90;;;;;;5041053;28;20467;-71
2022/06/14 01:15:44;;;;;;;7.13;2.40;;;12.00;99.90;;;;;;5047870;28;20183;-76
2022/06/14 01:18:12;;;;;;;5.67;2.63;;;11.90;99.90;;;;;;5048991;28;20404;-75
2022/06/14 01:20:40;;;;;;;4.13;2.33;;;12.00;99.90;;;;;;5033688;28;20464;-70
2022/06/14 01:23:09;;;;;;;5.20;2.23;;;12.00;99.90;;;;;;5050619;28;20425;-71
2022/06/14 01:25:52;;;;;;;5.20;2.33;;;12.00;99.90;;;;;;5053476;28;20399;-71
2022/06/14 01:28:21;;;;;;;3.23;2.47;;;12.00;99.90;;;;;;5052164;28;20469;-70
2022/06/14 01:30:51;;;;;;;4.07;2.23;;;11.90;99.90;;;;;;5037045;28;20461;-71
2022/06/14 01:33:28;;;;;;;11.97;2.93;;;11.80;99.90;;;;;;5051223;28;20388;-75
2022/06/14 01:36:06;;;;;;;2.47;2.00;;;11.90;99.90;;;;;;5051324;28;20402;-70
2022/06/14 01:38:32;;;;;;;7.63;2.27;;;12.00;99.90;;;;;;5036934;28;20441;-72
2022/06/14 01:41:16;;;;;;;7.13;2.40;;;11.90;99.90;;;;;;5050817;28;20412;-70
2022/06/14 01:44:00;;;;;;;7.73;2.60;;;11.90;99.90;;;;;;5052898;28;20399;-75
2022/06/14 01:46:40;;;;;;;5.10;2.13;;;11.90;99.90;;;;;;5034957;28;20901;-75
2022/06/14 01:52:17;;;;;;;2.30;2.10;;;11.90;99.90;;;;;;5038137;28;20427;-71
2022/06/14 01:55:05;;;;;;;7.47;2.27;;;11.90;99.90;;;;;;5051811;28;20407;-71
2022/06/14 01:57:55;;;;;;;4.43;2.33;;;11.90;99.90;;;;;;5051618;28;20945;-71
2022/06/14 02:00:36;;;;;;;5.70;2.33;;;12.00;99.90;;;;;;5046139;28;20432;-70
2022/06/14 02:06:17;;;;;;;10.53;2.27;;;12.00;99.90;;;;;;5039758;28;20434;-70
2022/06/14 02:08:55;;;;;;;4.10;1.87;;;12.00;99.90;;;;;;5041048;28;20415;-72
2022/06/14 02:11:32;;;;;;;6.73;2.67;;;12.00;99.90;;;;;;5052342;28;20452;-74
2022/06/14 02:14:08;;;;;;;7.80;2.43;;;12.00;99.90;;;;;;5032661;28;20467;-76
2022/06/14 02:16:57;;;;;;;2.50;1.97;;;12.00;99.90;;;;;;5038328;28;20389;-75
2022/06/14 02:19:33;;;;;;;6.17;1.80;;;11.90;99.90;;;;;;5045376;28;20491;-71
2022/06/14 02:22:08;;;;;;;6.40;2.23;;;11.80;99.90;;;;;;5033951;28;20949;-68
2022/06/14 02:24:45;;;;;;;5.23;2.83;;;11.90;99.90;;;;;;5052221;28;20410;-70
2022/06/14 02:27:22;;;;;;;3.00;1.70;;;12.00;99.90;;;;;;5051007;28;20421;-71
2022/06/14 02:29:52;;;;;;;5.80;2.10;;;12.10;99.90;;;;;;5032904;28;20423;-69
2022/06/14 02:32:30;;;;;;;3.23;2.93;;;12.00;99.90;;;;;;5034001;28;20432;-75
2022/06/14 02:35:06;;;;;;;4.83;1.70;;;11.90;99.90;;;;;;5032867;28;20489;-75
2022/06/14 02:37:45;;;;;;;3.80;1.87;;;12.00;99.90;;;;;;5038857;28;20457;-76
2022/06/14 02:40:18;;;;;;;2.53;2.33;;;12.00;99.90;;;;;;5052458;28;20940;-73
2022/06/14 02:43:15;;;;;;;3.03;1.70;;;12.00;99.90;;;;;;5034495;28;20406;-69
2022/06/14 02:45:52;;;;;;;3.97;1.90;;;12.10;99.90;;;;;;5023455;28;20931;-68
2022/06/14 02:48:33;;;;;;;3.40;3.10;;;12.10;99.90;;;;;;5035509;28;20419;-73
2022/06/14 02:51:22;;;;;;;4.73;2.00;;;12.10;99.90;;;;;;5052183;28;20444;-75
2022/06/14 02:53:50;;;;;;;5.10;2.13;;;12.20;99.90;;;;;;5048517;28;20512;-75
2022/06/14 02:56:25;;;;;;;6.10;2.20;;;12.20;99.90;;;;;;5052099;28;20380;-69
2022/06/14 02:59:02;;;;;;;3.93;1.87;;;12.30;99.90;;;;;;5057258;28;20448;-75
2022/06/14 03:01:50;;;;;;;4.63;2.07;;;12.30;99.90;;;;;;5063699;28;20392;-75
2022/06/14 03:04:23;;;;;;;7.13;2.07;;;12.40;99.90;;;;;;5051993;28;20428;-75
2022/06/14 03:07:22;;;;;;;3.10;2.20;;;12.30;99.90;;;;;;5051305;28;20835;-70
2022/06/14 03:09:48;;;;;;;4.27;1.97;;;12.20;99.90;;;;;;5014447;28;20428;-70
2022/06/14 03:12:29;;;;;;;3.80;2.17;;;12.20;99.90;;;;;;5051971;28;20828;-70
2022/06/14 03:15:00;;;;;;;1.70;1.60;;;12.30;99.90;;;;;;5046002;28;20392;-70
2022/06/14 03:17:44;;;;;;;4.20;2.20;;;12.30;99.90;;;;;;5051249;28;20409;-73
2022/06/14 03:20:32;;;;;;;2.60;1.70;;;12.30;99.90;;;;;;5033291;28;20420;-73
2022/06/14 03:23:35;;;;;;;4.30;2.07;;;12.30;99.90;;;;;;5051973;28;20420;-75
2022/06/14 03:26:15;;;;;;;3.70;2.37;;;12.20;99.90;;;;;;5053200;28;20389;-76
2022/06/14 03:28:55;;;;;;;10.07;1.77;;;12.30;99.90;;;;;;5054237;28;20483;-73
2022/06/14 03:31:30;;;;;;;6.40;2.23;;;12.30;99.90;;;;;;5055479;28;20444;-74
2022/06/14 03:34:02;;;;;;;2.80;2.10;;;12.30;99.90;;;;;;5055639;28;20387;-74
2022/06/14 03:36:28;;;;;;;2.20;1.83;;;12.30;99.90;;;;;;5054899;28;20460;-71
2022/06/14 03:39:02;;;;;;;1.93;1.80;;;12.30;99.90;;;;;;5054561;28;20443;-68
2022/06/14 03:41:32;;;;;;;3.47;1.73;;;12.30;99.90;;;;;;5055159;28;20421;-68
2022/06/14 03:43:59;;;;;;;3.73;1.80;;;12.20;99.90;;;;;;5054469;28;20490;-75
2022/06/14 03:46:37;;;;;;;8.87;2.40;;;12.20;99.90;;;;;;5054992;28;20474;-68
2022/06/14 03:49:16;;;;;;;2.10;1.90;;;12.20;99.90;;;;;;5054364;28;20447;-75
2022/06/14 03:52:10;;;;;;;3.53;2.10;;;12.20;99.90;;;;;;5035253;28;20459;-75
2022/06/14 03:54:57;;;;;;;7.37;1.90;;;12.10;99.90;;;;;;5035320;28;20464;-71
2022/06/14 03:57:48;;;;;;;2.90;2.30;;;12.20;99.90;;;;;;5030019;28;20436;-72
2022/06/14 04:00:19;;;;;;;6.03;2.07;;;12.20;99.90;;;;;;5043288;28;20425;-71
2022/06/14 04:03:02;;;;;;;3.87;2.10;;;12.10;99.90;;;;;;5053805;28;20438;-72
2022/06/14 04:05:55;;;;;;;3.67;1.97;;;12.20;99.90;;;;;;5035647;28;20385;-68
2022/06/14 04:08:42;;;;;;;7.63;2.80;;;12.20;99.90;;;;;;5049728;28;20400;-74
2022/06/14 04:11:07;;;;;;;5.17;3.00;;;12.10;99.90;;;;;;5036051;28;20481;-69
2022/06/14 04:13:45;;;;;;;3.87;2.40;;;12.10;99.90;;;;;;5054904;28;20372;-72
2022/06/14 04:16:26;;;;;;;7.10;2.50;;;12.20;99.90;;;;;;5052688;28;20174;-72
2022/06/14 04:19:03;;;;;;;6.00;2.43;;;12.20;99.90;;;;;;5054336;28;20414;-71
2022/06/14 04:21:49;;;;;;;3.97;2.17;;;12.20;99.90;;;;;;5054554;28;20458;-72
2022/06/14 04:25:00;;;;;;;4.07;2.40;;;12.10;99.90;;;;;;5074161;28;20398;-69
2022/06/14 04:27:26;;;;;;;4.50;2.27;;;12.00;99.90;;;;;;5045365;28;20416;-69
2022/06/14 04:29:57;;;;;;;7.60;3.10;;;12.00;99.90;;;;;;5051882;28;20899;-69
2022/06/14 04:32:44;;;;;;;4.70;2.53;;;12.00;99.90;;;;;;5052755;28;20206;-70
2022/06/14 04:35:38;;;;;;;7.30;1.97;;;12.00;99.90;;;;;;5044996;28;20779;-74
2022/06/14 04:38:08;;;;;;;4.70;2.20;;;12.10;99.90;;;;;;5053165;28;20934;-72
2022/06/14 04:40:40;;;;;;;2.20;2.00;;;12.20;99.90;;;;;;5054513;28;20418;-73
2022/06/14 04:43:18;;;;;;;3.30;2.70;;;12.20;99.90;;;;;;5054105;28;20348;-75
2022/06/14 04:45:54;;;;;;;3.33;2.37;;;12.20;99.90;;;;;;5054059;28;20401;-71
2022/06/14 04:48:30;;;;;;;2.90;2.37;;;12.20;99.90;;;;;;5046478;28;20433;-75
2022/06/14 04:51:10;;;;;;;6.87;2.93;;;12.20;99.90;;;;;;5053784;28;20437;-69
2022/06/14 04:53:47;;;;;;;5.83;2.57;;;12.20;99.90;;;;;;5046359;28;20448;-70
2022/06/14 04:56:25;;;;;;;8.17;2.90;;;12.30;99.90;;;;;;5053735;28;20795;-67
2022/06/14 04:58:57;;;;;;;3.30;2.80;;;12.30;99.90;;;;;;5053201;28;20433;-70
2022/06/14 05:01:30;;;;;;;7.40;2.37;;;12.30;99.90;;;;;;5068805;28;20475;-71
2022/06/14 05:04:04;;;;;;;7.40;3.30;;;12.40;99.90;;;;;;5042831;28;20399;-68
2022/06/14 05:06:40;;;;;;;5.83;2.57;;;12.50;99.90;;;;;;5052005;28;21298;-70
2022/06/14 05:09:16;;;;;;;3.47;2.03;;;12.60;99.90;;;;;;5053631;28;20463;-68
2022/06/14 05:11:44;;;;;;;8.40;3.00;;;12.80;99.90;;;;;;5053242;28;20931;-73
2022/06/14 05:14:13;;;;;;;12.10;3.10;;;12.80;99.90;;;;;;5053463;28;20814;-67
2022/06/14 05:16:46;;;;;;;3.40;2.33;;;12.90;99.90;;;;;;5052804;28;20485;-67
2022/06/14 05:19:23;;;;;;;9.07;2.53;;;12.90;99.90;;;;;;5040953;28;20425;-68
2022/06/14 05:21:57;;;;;;;14.40;2.70;;;12.90;99.90;;;;;;5035479;28;20408;-68
2022/06/14 05:24:24;;;;;;;9.60;2.40;;;13.00;99.90;;;;;;5033976;28;20534;-70
2022/06/14 05:27:37;;;;;;;7.37;2.20;;;13.00;99.90;;;;;;5033826;28;20409;-72
2022/06/14 05:30:15;;;;;;;5.03;2.73;;;13.10;99.90;;;;;;5026883;28;20425;-73
2022/06/14 05:33:10;;;;;;;3.80;2.03;;;13.10;99.90;;;;;;5044056;28;20520;-73
2022/06/14 05:35:51;;;;;;;9.87;3.33;;;13.20;99.90;;;;;;5053255;28;20941;-68
2022/06/14 05:38:34;;;;;;;7.50;2.50;;;13.40;99.90;;;;;;5045803;28;20479;-71
2022/06/14 05:41:10;;;;;;;7.10;4.00;;;13.40;99.90;;;;;;5033319;28;20388;-71
2022/06/14 05:43:49;;;;;;;4.90;2.40;;;13.50;99.90;;;;;;5040749;28;20524;-72
2022/06/14 05:46:34;;;;;;;6.60;2.50;;;13.50;99.90;;;;;;5045290;28;20439;-71
2022/06/14 05:49:12;;;;;;;5.13;2.00;;;13.60;99.90;;;;;;5033447;28;20539;-67
2022/06/14 05:52:00;;;;;;;5.93;2.50;;;13.60;99.90;;;;;;5038204;28;20423;-68
2022/06/14 05:54:32;;;;;;;7.33;2.63;;;13.60;99.90;;;;;;5048546;28;20414;-68
2022/06/14 05:57:20;;;;;;;5.17;2.47;;;13.70;99.90;;;;;;5047586;28;20780;-71
2022/06/14 06:00:10;;;;;;;5.70;2.50;;;13.80;99.90;;;;;;5051611;28;20436;-71
2022/06/14 06:02:54;;;;;;;9.07;4.20;;;13.80;99.90;;;;;;5053086;28;20372;-68
2022/06/14 06:05:40;;;;;;;18.83;3.87;;;14.00;99.90;;;;;;5037730;28;20779;-70
2022/06/14 06:08:33;;;;;;;4.53;1.80;;;14.10;99.90;;;;;;5041914;28;20441;-71
2022/06/14 06:11:16;;;;;;;8.13;2.47;;;14.10;99.90;;;;;;5021332;28;20464;-68
2022/06/14 06:13:53;;;;;;;9.53;2.37;;;14.20;99.90;;;;;;5046429;28;20401;-71
2022/06/14 06:19:20;;;;;;;6.60;2.50;;;14.30;99.90;;;;;;5044637;28;20953;-72
2022/06/14 06:21:57;;;;;;;8.53;2.10;;;14.40;99.90;;;;;;5052474;28;20517;-68
2022/06/14 06:25:08;;;;;;;5.37;2.00;;;14.30;99.90;;;;;;5052643;28;20573;-71
2022/06/14 06:27:46;;;;;;;3.30;1.77;;;14.30;99.90;;;;;;4997090;28;20457;-70
2022/06/14 06:30:19;;;;;;;4.67;2.20;;;14.40;99.90;;;;;;5034414;28;20421;-72
2022/06/14 06:32:45;;;;;;;11.73;2.10;;;14.50;99.90;;;;;;5046602;28;20422;-71
2022/06/14 06:35:13;;;;;;;7.30;2.67;;;14.50;99.90;;;;;;5042290;28;21040;-71
2022/06/14 06:37:48;;;;;;;10.03;2.30;;;14.60;99.90;;;;;;5051252;28;20398;-67
2022/06/14 06:40:22;;;;;;;3.87;1.90;;;14.70;99.90;;;;;;5037259;28;20420;-69
2022/06/14 06:43:10;;;;;;;4.40;1.73;;;14.80;99.90;;;;;;5052662;28;20397;-73
2022/06/14 06:45:40;;;;;;;6.83;2.50;;;14.80;99.90;;;;;;5031953;28;20406;-68
2022/06/14 06:48:06;;;;;;;7.80;2.57;;;14.70;99.90;;;;;;5051428;28;22288;-71
2022/06/14 06:50:43;;;;;;;5.57;2.10;;;14.70;99.90;;;;;;5051849;28;20457;-72
2022/06/14 06:53:17;;;;;;;3.83;2.03;;;14.80;99.90;;;;;;5052554;28;20213;-73
2022/06/14 06:56:08;;;;;;;4.07;3.67;;;14.90;99.90;;;;;;5051299;28;20459;-73
2022/06/14 06:58:38;;;;;;;7.47;2.30;;;15.00;99.90;;;;;;5051498;28;20430;-67
2022/06/14 07:01:14;;;;;;;4.43;1.60;;;15.10;99.90;;;;;;5055056;28;20948;-72
2022/06/14 07:03:47;;;;;;;5.63;2.23;;;15.10;99.90;;;;;;5056165;28;20401;-73
2022/06/14 07:06:25;;;;;;;3.13;2.00;;;15.10;99.90;;;;;;5055644;28;20416;-68
2022/06/14 07:09:04;;;;;;;4.20;2.17;;;15.20;99.90;;;;;;5054467;28;20469;-67
2022/06/14 07:11:38;;;;;;;9.40;1.87;;;15.30;99.90;;;;;;5055511;28;20438;-73
2022/06/14 07:14:16;;;;;;;3.30;2.00;;;15.40;99.90;;;;;;5056166;28;20397;-72
2022/06/14 07:16:57;;;;;;;3.20;1.70;;;15.50;99.90;;;;;;5037142;28;20413;-72
2022/06/14 07:19:54;;;;;;;8.13;2.70;;;15.70;99.90;;;;;;5055851;28;20467;-67
2022/06/14 07:22:45;;;;;;;8.20;2.00;;;15.70;99.90;;;;;;5032782;28;20422;-67
2022/06/14 07:25:24;;;;;;;8.07;3.00;;;15.60;99.90;;;;;;5055733;28;20471;-73
2022/06/14 07:27:52;;;;;;;3.60;2.23;;;15.70;99.90;;;;;;5054925;28;20404;-64
2022/06/14 07:30:28;;;;;;;5.93;4.73;;;15.80;99.90;;;;;;5055435;28;20496;-71
2022/06/14 07:32:57;;;;;;;3.50;2.10;;;15.90;99.90;;;;;;5055623;28;20393;-71
2022/06/14 07:35:43;;;;;;;5.27;1.93;;;15.70;99.90;;;;;;5055329;28;20402;-70
2022/06/14 07:38:44;;;;;;;5.13;1.83;;;15.80;99.90;;;;;;5053498;28;20441;-70
2022/06/14 07:41:25;;;;;;;10.83;2.70;;;15.80;99.90;;;;;;5050649;28;20771;-68
2022/06/14 07:44:26;;;;;;;3.93;1.97;;;15.90;99.90;;;;;;5037762;28;21052;-73
2022/06/14 07:47:10;;;;;;;4.70;2.07;;;15.80;99.90;;;;;;4980272;28;20429;-72
2022/06/14 07:49:52;;;;;;;3.10;1.80;;;15.80;99.90;;;;;;5035358;28;20503;-67
2022/06/14 07:52:32;;;;;;;9.00;2.00;;;15.90;99.90;;;;;;5054043;28;20833;-67
2022/06/14 07:55:11;;;;;;;8.03;2.23;;;15.90;99.90;;;;;;5055067;28;20886;-71
2022/06/14 07:57:44;;;;;;;8.87;1.60;;;16.00;99.90;;;;;;5054371;28;20460;-71
2022/06/14 08:03:20;;;;;;;7.87;2.93;;;16.20;99.90;;;;;;5055224;28;20428;-71
2022/06/14 08:05:49;;;;;;;4.07;1.87;;;16.30;99.90;;;;;;5053725;28;20456;-66
2022/06/14 08:08:25;;;;;;;13.60;2.03;;;16.40;99.90;;;;;;5054215;28;20436;-71
2022/06/14 08:10:57;;;;;;;2.50;1.57;;;16.50;99.90;;;;;;5054024;28;20840;-71
2022/06/14 08:13:36;;;;;;;4.30;1.57;;;16.60;99.90;;;;;;5054445;28;20436;-69
2022/06/14 08:16:04;;;;;;;8.83;3.03;;;16.90;99.90;;;;;;5054666;28;20448;-69
2022/06/14 08:18:51;;;;;;;4.10;1.63;;;16.70;99.90;;;;;;5051770;28;20495;-69
2022/06/14 08:21:40;;;;;;;1.43;1.30;;;16.80;99.90;;;;;;5054774;28;20743;-71
2022/06/14 08:24:25;;;;;;;1.70;1.53;;;16.90;99.90;;;;;;5036889;28;20413;-70
2022/06/14 08:27:03;;;;;;;4.57;1.70;;;17.00;99.90;;;;;;5053568;28;20457;-71
2022/06/14 08:29:39;;;;;;;2.27;1.57;;;17.00;99.90;;;;;;5054514;28;20429;-70
2022/06/14 08:32:25;;;;;;;2.50;1.57;;;17.10;99.90;;;;;;5034462;28;20446;-69
2022/06/14 08:35:13;;;;;;;4.03;1.30;;;17.00;97.70;;;;;;5052530;28;20425;-69
2022/06/14 08:38:17;;;;;;;5.50;2.07;;;16.90;99.40;;;;;;5053338;28;20459;-65
2022/06/14 08:41:07;;;;;;;6.23;2.10;;;16.80;94.50;;;;;;4973585;28;20439;-69
2022/06/14 08:43:40;;;;;;;2.53;1.73;;;16.80;94.60;;;;;;5052147;28;20446;-66
2022/06/14 08:46:38;;;;;;;7.37;1.90;;;16.90;96.40;;;;;;5054337;28;20492;-66
2022/06/14 08:49:18;;;;;;;4.90;1.67;;;17.00;97.90;;;;;;5034281;28;20545;-73
2022/06/14 08:52:02;;;;;;;2.40;1.70;;;16.90;96.30;;;;;;5034304;28;20453;-67
2022/06/14 08:55:00;;;;;;;3.37;1.40;;;16.90;94.60;;;;;;5033957;28;20399;-72
2022/06/14 08:57:37;;;;;;;1.87;1.50;;;16.90;94.60;;;;;;5025512;28;20429;-66
2022/06/14 09:00:12;;;;;;;1.87;1.40;;;16.90;94.60;;;;;;5054051;28;20467;-67
2022/06/14 09:02:58;;;;;;;4.10;2.20;;;17.00;95.50;;;;;;5054176;28;20396;-71
2022/06/14 09:05:32;;;;;;;3.20;2.47;;;17.00;94.80;;;;;;5036395;28;20451;-70
2022/06/14 09:08:01;;;;;;;1.97;1.37;;;17.20;98.90;;;;;;5053094;28;20405;-70
2022/06/14 09:10:51;;;;;;;7.43;1.93;;;17.30;94.70;;;;;;5052765;28;20401;-67
2022/06/14 09:13:41;;;;;;;2.33;1.50;;;17.30;94.70;;;;;;5053457;28;20410;-69
2022/06/14 09:16:26;;;;;;;5.93;1.50;;;17.40;94.70;;;;;;5053674;28;20443;-72
2022/06/14 09:18:54;;;;;;;2.80;1.87;;;17.60;94.80;;;;;;5035190;28;20759;-67
2022/06/14 09:21:53;;;;;;;2.10;1.73;;;17.80;94.90;;;;;;5035622;28;20413;-66
2022/06/14 09:24:31;;;;;;;2.40;1.47;;;17.80;94.90;;;;;;5052356;28;20441;-67
2022/06/14 09:26:59;;;;;;;5.53;1.83;;;17.70;94.90;;;;;;5043694;28;20435;-72
2022/06/14 09:29:40;;;;;;;3.73;1.90;;;17.80;94.90;;;;;;5051270;28;20460;-71
2022/06/14 09:33:09;;;;;;;3.27;1.27;;;17.90;95.00;;;;;;5035508;28;20992;-67
2022/06/14 09:36:02;;;;;;;4.53;1.70;;;17.50;94.80;;;;;;5032940;28;20405;-72
2022/06/14 09:39:05;;;;;;;1.83;1.30;;;17.30;94.70;;;;;;5036854;28;20437;-72
2022/06/14 09:41:53;;;;;;;2.93;1.40;;;17.20;94.70;;;;;;5053400;28;20397;-67
2022/06/14 09:44:24;;;;;;;1.63;1.47;;;17.00;94.60;;;;;;5044174;28;20474;-71
2022/06/14 09:47:21;;;;;;;4.10;1.77;;;16.90;94.60;;;;;;5052383;28;20405;-72
2022/06/14 09:50:12;;;;;;;3.10;1.53;;;16.80;94.50;;;;;;5037641;28;20466;-67
2022/06/14 09:52:50;;;;;;;2.90;1.63;;;16.90;94.50;;;;;;5032948;28;20458;-67
2022/06/14 09:55:45;;;;;;;4.80;1.50;;;16.90;94.60;;;;;;5051403;28;20594;-72
2022/06/14 09:58:36;;;;;;;2.50;1.30;;;16.90;94.50;;;;;;5051820;28;20457;-71
2022/06/14 10:01:14;;;;;;;3.10;1.50;;;17.00;94.60;;;;;;5052209;28;20532;-72
2022/06/14 10:03:59;;;;;;;4.70;1.70;;;17.00;94.60;;;;;;5034896;28;20429;-72
2022/06/14 10:06:52;;;;;;;1.60;1.30;;;16.90;94.60;;;;;;5052674;28;20842;-66
2022/06/14 10:09:30;;;;;;;2.23;1.30;;;16.90;94.60;;;;;;5052361;28;20972;-69
2022/06/14 10:12:25;;;;;;;6.80;1.80;;;16.80;97.40;;;;;;5051053;28;20453;-69
2022/06/14 10:15:13;;;;;;;4.43;1.40;;;16.80;99.80;;;;;;5033889;28;20429;-67
2022/06/14 10:18:14;;;;;;;1.97;1.60;;;17.00;99.90;;;;;;5051986;28;20445;-67
2022/06/14 10:21:04;;;;;;;1.90;1.73;;;17.00;97.90;;;;;;5071970;28;20911;-67
2022/06/14 10:23:41;;;;;;;1.87;1.47;;;17.00;96.40;;;;;;5067355;28;20426;-72
2022/06/14 10:29:53;;;;;;;10.03;2.40;;;17.20;99.60;;;;;;5052424;28;20456;-72
2022/06/14 10:32:33;;;;;;;3.13;1.50;;;17.10;99.90;;;;;;5052433;28;20463;-67
2022/06/14 10:35:08;;;;;;;6.00;1.80;;;16.90;99.90;;;;;;5032498;28;20968;-72
2022/06/14 10:38:11;;;;;;;6.20;1.50;;;16.90;99.90;;;;;;5052174;28;20424;-72
2022/06/14 10:41:19;;;;;;;3.53;1.50;;;17.10;99.90;;;;;;5036946;28;20782;-67
2022/06/14 10:43:51;;;;;;;5.80;1.80;;;17.10;99.90;;;;;;5036324;28;20433;-70
2022/06/14 10:46:22;;;;;;;6.53;1.70;;;17.10;99.90;;;;;;5040692;28;20413;-71
2022/06/14 10:49:02;;;;;;;4.00;1.47;;;17.10;99.90;;;;;;5055734;28;20448;-67
2022/06/14 10:51:36;;;;;;;1.60;1.50;;;17.00;99.90;;;;;;5056121;28;20957;-68
2022/06/14 10:54:28;;;;;;;5.33;1.90;;;17.00;99.90;;;;;;5055475;28;20506;-73
2022/06/14 10:57:04;;;;;;;2.37;1.50;;;16.90;99.90;;;;;;5024489;28;20421;-67
2022/06/14 10:59:57;;;;;;;2.43;1.33;;;17.00;99.90;;;;;;5056365;28;20811;-69
2022/06/14 11:02:45;;;;;;;3.20;1.40;;;17.20;99.90;;;;;;5028328;28;20421;-67
2022/06/14 11:05:22;;;;;;;4.67;2.83;;;17.20;99.90;;;;;;5046410;28;20413;-71
2022/06/14 11:07:57;;;;;;;3.83;1.53;;;17.30;99.90;;;;;;5055345;28;20432;-72
2022/06/14 11:10:31;;;;;;;5.37;1.63;;;17.50;99.90;;;;;;5054555;28;20951;-72
2022/06/14 11:13:10;;;;;;;3.80;1.70;;;17.70;99.90;;;;;;5037450;28;20448;-69
2022/06/14 11:16:07;;;;;;;2.50;1.83;;;18.10;99.90;;;;;;5055752;28;20928;-71
2022/06/14 11:18:50;;;;;;;4.70;1.90;;;18.30;99.90;;;;;;5054096;28;20445;-67
2022/06/14 11:21:37;;;;;;;2.33;1.63;;;18.40;99.90;;;;;;5054544;28;20425;-72
2022/06/14 11:24:22;;;;;;;3.93;2.17;;;18.50;99.90;;;;;;5056051;28;20406;-72
2022/06/14 11:27:35;;;;;;;2.27;1.67;;;18.60;99.90;;;;;;5050673;28;20848;-67
2022/06/14 11:30:13;;;;;;;1.50;1.37;;;18.80;98.90;;;;;;5045076;28;20457;-72
2022/06/14 11:32:50;;;;;;;2.07;1.50;;;19.30;99.00;;;;;;5055873;28;20444;-72
2022/06/14 11:35:28;;;;;;;3.27;1.67;;;19.70;95.60;;;;;;5047395;28;20422;-67
2022/06/14 11:38:00;;;;;;;3.20;1.33;;;20.00;95.70;;;;;;5034882;28;20406;-67
2022/06/14 11:40:27;;;;;;;2.57;1.50;;;19.80;95.60;;;;;;5047373;28;20931;-69
2022/06/14 11:43:11;;;;;;;2.73;1.20;;;19.80;95.60;;;;;;5036758;28;20460;-73
2022/06/14 11:45:54;;;;;;;2.53;1.20;;;19.70;95.60;;;;;;5055210;28;20894;-68
2022/06/14 11:48:39;;;;;;;2.87;1.00;;;19.60;95.60;;;;;;5053654;28;20509;-66
2022/06/14 11:51:29;;;;;;;2.30;1.50;;;19.20;94.80;;;;;;5035750;28;20458;-66
2022/06/14 11:54:17;;;;;;;9.33;1.93;;;19.20;95.30;;;;;;5020172;28;20418;-67
2022/06/14 11:56:57;;;;;;;3.77;1.50;;;19.90;95.60;;;;;;5054547;28;20397;-70
2022/06/14 11:59:50;;;;;;;2.23;1.53;;;20.50;95.90;;;;;;5053041;28;21047;-67
2022/06/14 12:02:41;;;;;;;2.70;1.40;;;20.80;94.90;;;;;;5037346;28;20424;-71
2022/06/14 12:05:28;;;;;;;1.57;1.27;;;20.40;86.60;;;;;;5055180;28;20417;-67
2022/06/14 12:08:04;;;;;;;3.97;1.17;;;20.30;88.10;;;;;;5054211;28;20461;-72
2022/06/14 12:10:44;;;;;;;2.80;2.10;;;20.70;92.50;;;;;;5051968;28;20429;-72
2022/06/14 12:13:31;;;;;;;4.23;1.30;;;20.40;89.40;;;;;;5055116;28;20882;-72
2022/06/14 12:16:26;;;;;;;2.43;1.33;;;20.20;86.70;;;;;;5036133;28;20961;-68
2022/06/14 12:19:10;;;;;;;3.10;1.10;;;20.10;84.20;;;;;;5054370;28;20435;-67
2022/06/14 12:21:44;;;;;;;1.37;1.10;;;19.90;90.00;;;;;;5034943;28;20883;-68
2022/06/14 12:24:17;;;;;;;1.93;1.73;;;20.10;86.50;;;;;;5035898;28;20413;-72
2022/06/14 12:27:03;;;;;;;2.80;1.40;;;20.10;79.60;;;;;;5052752;28;20456;-67
2022/06/14 12:29:34;;;;;;;4.33;1.30;;;19.80;76.80;;;;;;5054378;28;20481;-72
2022/06/14 12:32:30;;;;;;;2.87;1.10;;;19.80;79.10;;;;;;5054636;28;20515;-67
2022/06/14 12:35:06;;;;;;;2.90;1.30;;;20.10;80.30;;;;;;5051757;28;20586;-72
2022/06/14 12:37:50;;;;;;;1.70;1.30;;;20.10;84.90;;;;;;5053732;28;20477;-73
2022/06/14 12:40:22;;;;;;;2.07;1.50;;;20.00;83.90;;;;;;5035355;28;20893;-68
2022/06/14 12:43:20;;;;;;;2.07;1.70;;;19.70;83.00;;;;;;5054455;28;20409;-69
2022/06/14 12:46:07;;;;;;;3.30;1.57;;;19.70;90.40;;;;;;5054209;28;20576;-74
2022/06/14 12:48:51;;;;;;;2.90;1.40;;;19.70;87.50;;;;;;5035555;28;20802;-73
2022/06/14 12:51:37;;;;;;;9.63;2.10;;;19.80;83.10;;;;;;5051796;28;20456;-67
2022/06/14 12:54:51;;;;;;;5.53;1.43;;;19.50;79.40;;;;;;5052342;28;20439;-68
2022/06/14 12:57:18;;;;;;;4.83;1.73;;;19.40;80.80;;;;;;5015532;28;20953;-72
2022/06/14 13:00:04;;;;;;;4.50;1.90;;;19.20;85.40;;;;;;5034006;28;20425;-72
2022/06/14 13:02:39;;;;;;;2.03;1.17;;;19.30;86.90;;;;;;5034080;28;20418;-72
2022/06/14 13:05:14;;;;;;;4.90;1.23;;;19.70;88.00;;;;;;5027915;28;20439;-73
2022/06/14 13:08:22;;;;;;;3.63;1.27;;;19.80;87.00;;;;;;5053127;28;20405;-72
2022/06/14 13:11:03;;;;;;;2.40;1.27;;;19.90;91.10;;;;;;5053752;28;20457;-67
2022/06/14 13:13:50;;;;;;;4.23;1.30;;;19.80;88.20;;;;;;5052964;28;20390;-71
2022/06/14 13:16:37;;;;;;;3.23;1.90;;;19.20;87.20;;;;;;5035962;28;20429;-71
2022/06/14 13:19:07;;;;;;;2.57;1.60;;;18.80;93.40;;;;;;5035825;28;20441;-72
2022/06/14 13:21:32;;;;;;;6.93;1.70;;;18.70;93.20;;;;;;5052301;28;20429;-71
2022/06/14 13:24:23;;;;;;;2.50;1.47;;;18.70;95.20;;;;;;5053835;28;20477;-66
2022/06/14 13:27:04;;;;;;;5.87;1.73;;;19.10;95.40;;;;;;5052790;28;20238;-72
2022/06/14 13:29:53;;;;;;;1.37;1.10;;;20.10;95.70;;;;;;5053541;28;20425;-67
2022/06/14 13:32:33;;;;;;;1.73;1.40;;;21.10;96.10;;;;;;5035564;28;21064;-70
2022/06/14 13:35:19;;;;;;;1.57;1.47;;;21.40;96.20;;;;;;5052634;28;20405;-73
2022/06/14 13:37:57;;;;;;;1.40;1.30;;;21.70;96.30;;;;;;5051488;28;20435;-73
2022/06/14 13:40:35;;;;;;;1.50;1.40;;;20.90;93.30;;;;;;5053331;28;20495;-67
2022/06/14 13:43:22;;;;;;;5.23;1.50;;;20.10;92.00;;;;;;5053385;28;20501;-67
2022/06/14 13:46:02;;;;;;;1.60;1.27;;;19.70;86.00;;;;;;5053383;28;20401;-73
2022/06/14 13:48:59;;;;;;;3.40;1.30;;;19.40;93.00;;;;;;5052408;28;20980;-67
2022/06/14 13:51:31;;;;;;;1.90;1.20;;;19.50;94.80;;;;;;5034335;28;20465;-70
2022/06/14 13:54:21;;;;;;;3.73;2.17;;;19.90;93.60;;;;;;5052234;28;20516;-66
2022/06/14 13:56:52;;;;;;;2.97;1.73;;;20.20;95.80;;;;;;5034403;28;21209;-67
2022/06/14 13:59:25;;;;;;;3.30;1.73;;;20.40;90.40;;;;;;5035276;28;20965;-67
2022/06/14 14:02:02;;;;;;;2.70;1.43;;;20.40;95.90;;;;;;5051965;28;20444;-67
2022/06/14 14:04:34;;;;;;;5.20;1.43;;;20.40;95.80;;;;;;5053093;28;20433;-72
2022/06/14 14:07:09;;;;;;;3.10;1.50;;;20.20;94.40;;;;;;5051547;28;21121;-72
2022/06/14 14:10:03;;;;;;;4.30;1.93;;;20.10;92.90;;;;;;5050456;28;20456;-71